Time;durP1;ratioP1;P1;durP2;ratioP2;P2;SDS_P1;SDS_P2;PMS_P1;PMS_P2;Temp;Humidity;BMP_temperature;BMP_pressure;BME280_temperature;BME280_humidity;BME280_pressure;Samples;Min_cycle;Max_cycle;Signal;HPM_P1;HPM_P2
2022/05/10 00:01:42;;;;;;;7.43;6.38;;;16.90;97.60;;;16.76;100.00;101029.84;4989025;28;20056;-77
2022/05/10 00:04:11;;;;;;;9.07;5.95;;;16.70;97.80;;;16.68;100.00;101015.97;5004911;28;20138;-77
2022/05/10 00:06:45;;;;;;;7.03;6.32;;;16.60;97.90;;;16.63;100.00;101028.59;5005180;28;20050;-78
2022/05/10 00:09:19;;;;;;;9.77;7.10;;;16.60;98.00;;;16.58;100.00;101024.31;5004410;28;20050;-77
2022/05/10 00:11:47;;;;;;;7.47;6.78;;;16.50;98.20;;;16.47;100.00;101020.31;4988757;28;20050;-77
2022/05/10 00:14:14;;;;;;;8.98;6.28;;;16.70;98.20;;;16.41;100.00;101027.63;4993257;28;20055;-77
2022/05/10 00:16:44;;;;;;;6.13;5.63;;;16.40;98.10;;;16.34;100.00;101019.94;5009823;28;20077;-76
2022/05/10 00:19:15;;;;;;;7.60;6.80;;;16.40;98.10;;;16.29;100.00;101022.75;5005842;28;20145;-77
2022/05/10 00:21:44;;;;;;;7.65;6.88;;;16.40;98.20;;;16.32;100.00;101014.72;5007184;28;20053;-77
2022/05/10 00:24:11;;;;;;;9.15;7.65;;;16.90;98.40;;;16.33;100.00;101015.56;5006767;28;20053;-77
2022/05/10 00:26:38;;;;;;;7.72;6.95;;;16.30;98.10;;;16.32;100.00;101009.41;5007865;28;20135;-78
2022/05/10 00:29:06;;;;;;;7.93;6.93;;;16.30;98.20;;;16.24;100.00;101024.72;4991519;28;20066;-77
2022/05/10 00:31:33;;;;;;;7.43;6.78;;;16.30;98.30;;;16.25;100.00;101013.19;5010444;28;20046;-77
2022/05/10 00:34:01;;;;;;;7.72;6.90;;;16.50;98.30;;;16.18;100.00;101014.34;5009762;28;20046;-76
2022/05/10 00:36:30;;;;;;;7.47;6.88;;;16.20;98.30;;;16.26;100.00;101015.78;5009106;28;20107;-77
2022/05/10 00:38:57;;;;;;;8.00;6.78;;;16.90;98.50;;;16.18;100.00;101009.91;4992619;28;20069;-77
2022/05/10 00:42:25;;;;;;;7.03;6.35;;;16.30;98.60;;;16.13;100.00;101018.03;4993115;28;20054;-78
2022/05/10 00:45:06;;;;;;;6.70;6.10;;;16.10;98.60;;;16.22;100.00;101008.00;4950686;28;20782;-78
2022/05/10 00:48:02;;;;;;;6.78;6.18;;;16.10;98.50;;;16.18;100.00;101004.59;4996037;28;20042;-77
2022/05/10 00:50:41;;;;;;;7.57;6.68;;;16.10;98.40;;;16.02;100.00;100999.84;4993776;28;20046;-78
2022/05/10 00:53:46;;;;;;;7.45;6.70;;;16.00;98.60;;;16.06;100.00;101003.25;5008837;28;20057;-78
2022/05/10 00:56:25;;;;;;;7.53;6.70;;;16.00;98.60;;;16.00;100.00;100995.50;4992707;28;20046;-77
2022/05/10 00:59:10;;;;;;;7.47;6.82;;;15.90;98.80;;;15.92;100.00;101000.25;4991402;28;20050;-77
2022/05/10 01:01:40;;;;;;;7.55;6.85;;;15.90;98.50;;;15.91;100.00;100999.38;4993056;28;20049;-77
2022/05/10 01:04:26;;;;;;;;;;;15.80;98.60;;;16.07;100.00;100994.38;5009813;28;20046;-78
2022/05/10 01:07:00;;;;;;;7.63;6.95;;;15.90;98.50;;;15.81;100.00;101001.44;5007724;28;19926;-78
2022/05/10 01:09:54;;;;;;;7.38;6.60;;;15.80;98.70;;;15.68;100.00;100987.78;5007826;28;20046;-77
2022/05/10 01:12:42;;;;;;;8.30;7.05;;;15.80;98.50;;;15.70;100.00;100993.88;5008408;28;20053;-76
2022/05/10 01:15:20;;;;;;;7.90;7.10;;;15.70;98.40;;;15.65;100.00;100994.97;5007258;28;20084;-76
2022/05/10 01:17:49;;;;;;;7.35;6.55;;;15.80;98.70;;;15.50;100.00;100983.13;4994430;28;20042;-77
2022/05/10 01:20:20;;;;;;;9.90;6.55;;;15.60;98.70;;;15.65;100.00;100984.34;5007801;28;20046;-78
2022/05/10 01:23:20;;;;;;;10.02;7.40;;;15.60;98.70;;;15.55;100.00;100983.81;5009619;28;20092;-76
2022/05/10 01:26:31;;;;;;;7.75;7.05;;;15.50;99.00;;;15.52;100.00;100986.59;4983894;28;20050;-77
2022/05/10 01:29:06;;;;;;;7.85;7.15;;;15.90;99.10;;;15.42;100.00;100978.94;4972760;28;20058;-78
2022/05/10 01:31:44;;;;;;;7.00;6.40;;;15.50;99.10;;;15.38;100.00;100992.38;4958128;28;20039;-77
2022/05/10 01:34:19;;;;;;;7.03;6.15;;;15.40;99.00;;;15.35;100.00;100988.03;4956888;28;20039;-78
2022/05/10 01:37:03;;;;;;;8.52;7.72;;;15.40;99.00;;;15.37;100.00;100982.66;4972647;28;20043;-77
2022/05/10 01:39:47;;;;;;;7.85;7.15;;;15.80;99.10;;;15.39;100.00;100980.84;4939998;28;20051;-77
2022/05/10 01:42:30;;;;;;;7.50;6.68;;;15.40;99.00;;;15.29;100.00;100981.16;4972476;28;20496;-76
2022/05/10 01:45:12;;;;;;;8.75;6.97;;;15.20;99.00;;;15.31;100.00;100976.66;4986239;28;20057;-77
2022/05/10 01:47:47;;;;;;;7.55;6.85;;;15.20;99.10;;;15.31;100.00;100968.72;5005445;28;20468;-78
2022/05/10 01:50:44;;;;;;;7.10;6.47;;;16.70;99.50;;;15.27;100.00;100964.44;5007837;28;20061;-78
2022/05/10 01:53:18;;;;;;;8.77;7.35;;;15.20;99.20;;;15.22;100.00;100963.75;4992328;28;20062;-76
2022/05/10 01:55:52;;;;;;;7.50;6.55;;;15.10;99.10;;;15.11;100.00;100968.53;4993522;28;20530;-77
2022/05/10 01:58:30;;;;;;;7.35;6.57;;;15.10;99.20;;;14.98;100.00;100971.56;4992847;28;20066;-77
2022/05/10 02:01:23;;;;;;;9.02;7.50;;;15.00;99.40;;;15.00;100.00;100961.78;4993294;28;20046;-78
2022/05/10 02:04:20;;;;;;;9.80;6.85;;;15.00;99.30;;;14.71;100.00;100974.19;4990457;28;20729;-77
2022/05/10 02:07:04;;;;;;;7.20;6.50;;;16.40;99.90;;;14.60;100.00;100971.84;5008002;28;20046;-78
2022/05/10 02:09:40;;;;;;;8.63;7.63;;;15.00;99.80;;;14.67;100.00;100966.34;5008262;28;20050;-78
2022/05/10 02:12:28;;;;;;;8.52;6.57;;;17.10;99.90;;;14.74;100.00;100965.28;5003438;28;20051;-77
2022/05/10 02:15:06;;;;;;;11.02;7.45;;;14.80;99.40;;;14.76;100.00;100967.91;5002630;28;20038;-76
2022/05/10 02:18:09;;;;;;;7.47;6.78;;;14.80;99.60;;;14.71;100.00;100955.66;4986720;28;20053;-77
2022/05/10 02:20:52;;;;;;;11.73;7.05;;;14.80;99.70;;;14.80;100.00;100956.28;4987159;28;20511;-77
2022/05/10 02:23:30;;;;;;;7.57;6.85;;;14.70;99.60;;;14.74;100.00;100966.13;4970577;28;20051;-77
2022/05/10 02:26:05;;;;;;;8.93;7.93;;;14.70;99.70;;;14.67;100.00;100953.09;4984969;28;20043;-77
2022/05/10 02:28:54;;;;;;;7.88;7.07;;;15.20;99.90;;;14.65;100.00;100960.25;4966360;28;20046;-77
2022/05/10 02:34:45;;;;;;;8.90;6.63;;;14.60;99.80;;;14.47;100.00;100954.59;4973688;28;20038;-77
2022/05/10 02:37:15;;;;;;;7.95;7.25;;;14.60;99.80;;;14.42;100.00;100957.41;4986640;28;20125;-77
2022/05/10 02:39:45;;;;;;;8.15;7.35;;;14.50;99.90;;;14.30;100.00;100952.50;4985301;28;20137;-78
2022/05/10 02:42:17;;;;;;;8.23;7.53;;;14.50;99.80;;;14.27;100.00;100944.63;4970554;28;20069;-77
2022/05/10 02:44:44;;;;;;;7.60;6.82;;;14.40;99.80;;;14.28;100.00;100954.28;4970602;28;20418;-78
2022/05/10 02:47:11;;;;;;;10.88;8.50;;;14.40;99.70;;;14.32;100.00;100950.66;4989289;28;20046;-76
2022/05/10 02:49:40;;;;;;;7.47;6.78;;;14.40;99.80;;;14.37;100.00;100951.38;4987046;28;20053;-77
2022/05/10 02:52:07;;;;;;;7.72;7.03;;;14.60;99.80;;;14.37;100.00;100945.25;5003491;28;20667;-77
2022/05/10 02:54:34;;;;;;;7.30;6.65;;;14.30;99.60;;;14.20;100.00;100943.94;4986968;28;20050;-78
2022/05/10 02:57:03;;;;;;;7.35;6.72;;;14.20;99.60;;;14.03;100.00;100940.00;4987143;28;20055;-78
2022/05/10 02:59:35;;;;;;;7.85;6.93;;;14.20;99.60;;;14.20;100.00;100943.09;4987631;28;20130;-78
2022/05/10 03:02:18;;;;;;;7.75;7.07;;;14.20;99.40;;;14.18;100.00;100944.00;5004958;28;20046;-78
2022/05/10 03:04:56;;;;;;;8.80;7.40;;;14.20;99.80;;;14.20;100.00;100940.44;5004542;28;20058;-78
2022/05/10 03:07:26;;;;;;;8.23;7.43;;;14.20;99.60;;;14.15;100.00;100949.41;5003694;28;20046;-78
2022/05/10 03:09:53;;;;;;;8.85;8.02;;;14.20;99.70;;;13.96;100.00;100940.25;5002916;28;20601;-76
2022/05/10 03:12:23;;;;;;;9.02;7.45;;;14.10;99.90;;;13.97;100.00;100947.25;5004061;28;20050;-78
2022/05/10 03:14:50;;;;;;;8.50;7.70;;;14.10;99.90;;;13.94;100.00;100953.53;4987283;28;20050;-77
2022/05/10 03:17:17;;;;;;;8.02;7.22;;;15.50;99.90;;;13.90;100.00;100947.44;4985200;28;20043;-78
2022/05/10 03:19:44;;;;;;;7.80;7.05;;;14.90;99.90;;;13.71;100.00;100944.44;4984931;28;20059;-77
2022/05/10 03:22:12;;;;;;;8.30;7.50;;;14.30;99.50;;;13.68;100.00;100948.97;4988187;28;20500;-78
2022/05/10 03:24:42;;;;;;;8.00;7.20;;;15.50;99.70;;;13.78;100.00;100945.16;4988184;28;20050;-77
2022/05/10 03:27:11;;;;;;;8.25;7.45;;;13.90;99.20;;;13.68;100.00;100944.53;4988295;28;20050;-78
2022/05/10 03:29:40;;;;;;;8.30;6.82;;;15.80;99.80;;;13.53;100.00;100947.59;4986866;28;20125;-77
2022/05/10 03:32:09;;;;;;;7.65;6.95;;;13.80;99.20;;;13.60;100.00;100951.84;4987089;28;20426;-77
2022/05/10 03:34:54;;;;;;;9.10;7.63;;;13.70;99.40;;;13.68;100.00;100943.69;5008097;28;20051;-76
2022/05/10 03:37:23;;;;;;;11.18;8.15;;;15.40;99.90;;;13.59;100.00;100950.94;4993147;28;20046;-78
2022/05/10 03:39:50;;;;;;;12.23;7.57;;;13.70;99.90;;;13.54;100.00;100957.28;4982048;28;20043;-77
2022/05/10 03:42:19;;;;;;;9.73;7.10;;;13.70;99.90;;;13.38;100.00;100955.00;4974296;28;20093;-78
2022/05/10 03:44:50;;;;;;;7.40;6.45;;;13.90;99.90;;;13.42;100.00;100954.00;4987662;28;20057;-78
2022/05/10 03:47:18;;;;;;;8.43;7.57;;;14.10;99.90;;;13.44;100.00;100960.19;4991497;28;20080;-77
2022/05/10 03:49:49;;;;;;;8.07;6.75;;;13.50;99.90;;;13.38;100.00;100951.50;5006918;28;20046;-78
2022/05/10 03:52:16;;;;;;;9.35;7.40;;;13.50;99.90;;;13.28;100.00;100959.66;4991402;28;20061;-77
2022/05/10 03:54:46;;;;;;;8.35;7.15;;;15.40;99.90;;;13.30;100.00;100946.44;4991464;28;20102;-78
2022/05/10 03:57:13;;;;;;;10.05;7.47;;;14.60;99.90;;;13.21;100.00;100955.47;5008533;28;20400;-77
2022/05/10 03:59:44;;;;;;;8.10;7.30;;;13.40;99.90;;;13.12;100.00;100953.03;5006595;28;20423;-77
2022/05/10 04:02:12;;;;;;;;;;;14.50;99.90;;;13.26;100.00;100950.03;5006179;28;20054;-77
2022/05/10 04:04:40;;;;;;;7.38;6.78;;;13.30;99.90;;;13.15;100.00;100948.56;5008211;28;19922;-79
2022/05/10 04:07:08;;;;;;;7.35;6.65;;;13.30;99.90;;;13.11;100.00;100941.63;5008289;28;20054;-77
2022/05/10 04:09:36;;;;;;;7.85;7.13;;;13.30;99.90;;;13.19;100.00;100946.72;4990833;28;20511;-78
2022/05/10 04:12:03;;;;;;;8.10;7.32;;;13.20;99.90;;;13.23;100.00;100948.34;5007896;28;20161;-77
2022/05/10 04:14:30;;;;;;;8.40;7.50;;;13.30;99.90;;;13.20;100.00;100951.09;4991287;28;20097;-78
2022/05/10 04:16:57;;;;;;;8.30;7.55;;;13.30;99.90;;;13.26;100.00;100950.03;4973649;28;20042;-78
2022/05/10 04:19:25;;;;;;;8.68;7.60;;;15.40;99.90;;;13.00;100.00;100949.78;4974661;28;20047;-79
2022/05/10 04:21:52;;;;;;;8.57;7.57;;;13.40;99.90;;;13.20;100.00;100945.81;4977514;28;20500;-76
2022/05/10 04:24:19;;;;;;;8.50;7.65;;;13.30;99.90;;;13.31;100.00;100956.09;4991609;28;20069;-77
2022/05/10 04:26:48;;;;;;;11.30;8.48;;;13.30;99.90;;;13.40;100.00;100958.47;4992538;28;20061;-77
2022/05/10 04:29:18;;;;;;;8.40;7.60;;;13.60;99.90;;;13.53;100.00;100963.47;4973540;28;20058;-77
2022/05/10 04:31:45;;;;;;;8.95;7.65;;;13.40;99.90;;;13.53;100.00;100968.75;4973248;28;20046;-76
2022/05/10 04:34:13;;;;;;;9.70;7.97;;;14.40;99.90;;;13.58;100.00;100970.38;4988512;28;20050;-78
2022/05/10 04:36:40;;;;;;;11.15;8.32;;;13.50;99.90;;;13.60;100.00;100981.78;4974821;28;20400;-77
2022/05/10 04:39:07;;;;;;;8.40;7.70;;;13.50;99.90;;;13.53;100.00;100985.50;4989962;28;20042;-77
2022/05/10 04:41:42;;;;;;;12.30;7.72;;;13.60;99.90;;;13.66;100.00;100982.50;4988697;28;20079;-78
2022/05/10 04:44:11;;;;;;;10.10;8.35;;;13.60;99.90;;;13.79;100.00;100991.84;4991992;28;20042;-78
2022/05/10 04:46:40;;;;;;;9.75;8.75;;;13.90;99.90;;;13.77;100.00;100974.31;5005879;28;20057;-78
2022/05/10 04:49:13;;;;;;;8.23;7.53;;;13.70;99.90;;;13.78;100.00;100981.31;5006454;28;20074;-78
2022/05/10 04:51:41;;;;;;;9.95;7.47;;;13.80;99.90;;;13.78;100.00;100982.19;5006481;28;20805;-77
2022/05/10 04:54:25;;;;;;;10.43;8.32;;;13.80;99.90;;;13.92;100.00;100978.28;4990739;28;20038;-78
2022/05/10 04:56:53;;;;;;;9.32;7.95;;;13.80;99.90;;;13.95;100.00;100978.19;4990393;28;20046;-79
2022/05/10 04:59:26;;;;;;;8.82;7.93;;;13.90;99.90;;;14.02;100.00;100982.41;4975543;28;20134;-77
2022/05/10 05:01:53;;;;;;;10.60;8.30;;;13.90;99.90;;;14.09;100.00;100983.97;4975284;28;20050;-78
2022/05/10 05:04:20;;;;;;;9.45;7.95;;;14.00;99.90;;;14.12;100.00;100983.00;4991068;28;20177;-77
2022/05/10 05:06:49;;;;;;;8.70;7.90;;;14.00;99.90;;;14.20;100.00;100988.06;4975446;28;20054;-78
2022/05/10 05:09:16;;;;;;;9.25;8.38;;;15.00;99.90;;;14.32;100.00;101001.81;4991755;28;20443;-76
2022/05/10 05:11:43;;;;;;;9.23;8.40;;;14.10;99.90;;;14.46;100.00;100990.81;4989039;28;19922;-77
2022/05/10 05:14:10;;;;;;;9.98;8.98;;;15.30;99.90;;;14.51;100.00;100988.00;4971511;28;20562;-77
2022/05/10 05:16:37;;;;;;;10.52;9.50;;;15.00;99.90;;;14.64;100.00;100995.59;4989125;28;20050;-77
2022/05/10 05:19:05;;;;;;;11.05;8.43;;;14.30;99.90;;;14.72;100.00;100988.31;5004011;28;20137;-77
2022/05/10 05:21:32;;;;;;;11.27;9.15;;;14.50;99.90;;;14.78;100.00;100987.25;4971630;28;20061;-76
2022/05/10 05:23:59;;;;;;;9.52;7.97;;;15.20;99.90;;;14.88;100.00;100992.22;4987660;28;20054;-75
2022/05/10 05:26:26;;;;;;;9.30;8.48;;;14.70;99.90;;;14.99;100.00;100993.66;4988840;28;20053;-77
2022/05/10 05:28:53;;;;;;;9.98;9.07;;;14.60;99.90;;;15.01;100.00;100989.16;4973211;28;20058;-77
2022/05/10 05:31:20;;;;;;;10.63;9.20;;;14.80;99.90;;;15.16;100.00;101001.03;4990734;28;20081;-77
2022/05/10 05:33:48;;;;;;;10.23;9.15;;;14.90;99.90;;;15.20;100.00;100997.34;4990518;28;20121;-78
2022/05/10 05:36:15;;;;;;;9.25;8.20;;;15.30;99.90;;;15.29;100.00;100999.72;5005833;28;20046;-77
2022/05/10 05:38:44;;;;;;;10.05;9.02;;;15.00;99.90;;;15.37;100.00;100999.44;4973531;28;20038;-77
2022/05/10 05:41:12;;;;;;;11.23;8.25;;;15.10;99.90;;;15.47;100.00;100988.53;5004390;28;20137;-76
2022/05/10 05:43:39;;;;;;;12.57;9.52;;;15.40;99.90;;;15.56;100.00;100993.50;4987412;28;20467;-77
2022/05/10 05:46:06;;;;;;;11.25;8.43;;;15.30;99.90;;;15.62;100.00;100980.03;5004605;28;20046;-76
2022/05/10 05:48:33;;;;;;;10.63;8.82;;;15.40;99.90;;;15.65;100.00;100993.19;4988616;28;20141;-76
2022/05/10 05:51:00;;;;;;;9.98;9.07;;;15.50;99.90;;;15.72;100.00;100989.38;4988880;28;20046;-77
2022/05/10 05:53:30;;;;;;;9.43;8.45;;;15.60;99.90;;;15.82;100.00;100995.22;5004819;28;20038;-77
2022/05/10 05:56:03;;;;;;;;;;;15.60;99.90;;;15.89;100.00;100990.59;5005768;28;20056;-77
2022/05/10 05:58:31;;;;;;;12.48;9.32;;;15.60;99.90;;;15.93;100.00;100994.00;5004778;28;19926;-77
2022/05/10 06:00:58;;;;;;;10.13;9.15;;;15.80;99.90;;;15.99;100.00;101001.72;5004697;28;20053;-77
2022/05/10 06:03:28;;;;;;;9.90;9.00;;;16.60;99.90;;;16.05;100.00;100995.34;4988805;28;20075;-77
2022/05/10 06:05:55;;;;;;;10.50;9.30;;;15.80;99.90;;;16.08;100.00;100987.25;4988429;28;20163;-77
2022/05/10 06:08:22;;;;;;;11.15;8.27;;;15.80;99.90;;;16.17;100.00;100994.88;5004222;28;20530;-77
2022/05/10 06:10:50;;;;;;;11.23;8.63;;;15.90;99.80;;;16.25;100.00;100987.53;4987974;28;20046;-76
2022/05/10 06:13:21;;;;;;;10.30;8.57;;;17.70;99.90;;;16.25;100.00;100992.81;5004813;28;20807;-78
2022/05/10 06:15:49;;;;;;;;;;;16.10;99.90;;;16.39;100.00;100986.09;4989092;28;20046;-77
2022/05/10 06:18:16;;;;;;;12.18;9.63;;;16.10;99.90;;;16.42;100.00;100991.31;5004857;28;19936;-78
2022/05/10 06:20:43;;;;;;;10.13;9.18;;;16.20;99.90;;;16.49;100.00;100989.28;4987636;28;20076;-76
2022/05/10 06:23:10;;;;;;;10.57;9.25;;;16.20;99.70;;;16.51;100.00;100987.44;4972119;28;20804;-77
2022/05/10 06:25:37;;;;;;;11.27;8.40;;;16.70;99.80;;;16.56;100.00;100985.44;4988931;28;20092;-78
2022/05/10 06:28:05;;;;;;;10.88;9.88;;;16.30;99.60;;;16.65;100.00;100984.22;4970593;28;20149;-78
2022/05/10 06:30:32;;;;;;;11.25;9.40;;;16.40;99.70;;;16.68;100.00;100986.75;5003904;28;20129;-78
2022/05/10 06:33:00;;;;;;;11.15;8.95;;;16.40;99.90;;;16.76;100.00;100999.72;4987346;28;20042;-77
2022/05/10 06:35:29;;;;;;;11.93;8.80;;;16.50;99.70;;;16.82;100.00;100996.84;4986280;28;20070;-77
2022/05/10 06:40:44;;;;;;;10.50;9.10;;;16.60;99.60;;;16.92;100.00;100995.53;4986940;28;20487;-77
2022/05/10 06:43:11;;;;;;;12.02;8.93;;;16.70;99.50;;;16.97;100.00;100996.22;4988750;28;20042;-78
2022/05/10 06:45:43;;;;;;;10.95;9.30;;;16.80;99.60;;;17.08;100.00;100992.28;4971596;28;20053;-77
2022/05/10 06:48:10;;;;;;;10.23;9.23;;;16.70;99.40;;;17.12;100.00;100991.25;4971101;28;20051;-77
2022/05/10 06:50:38;;;;;;;10.23;9.18;;;16.90;99.40;;;17.20;100.00;100993.56;4987659;28;20047;-78
2022/05/10 06:53:06;;;;;;;13.55;9.38;;;16.90;99.50;;;17.31;100.00;100990.47;4972328;28;20074;-78
2022/05/10 06:55:38;;;;;;;11.25;9.15;;;16.90;99.30;;;17.37;100.00;100992.84;4988059;28;20046;-77
2022/05/10 06:58:06;;;;;;;15.70;9.63;;;17.10;99.20;;;17.48;100.00;100989.72;4959040;28;20061;-77
2022/05/10 07:00:38;;;;;;;9.73;8.82;;;17.10;99.20;;;17.57;100.00;100989.34;4991776;28;20129;-77
2022/05/10 07:03:15;;;;;;;10.57;9.45;;;17.20;99.00;;;17.65;100.00;100981.91;4990146;28;20042;-78
2022/05/10 07:05:44;;;;;;;13.48;9.40;;;17.30;98.80;;;17.74;100.00;100995.72;4990189;28;20038;-77
2022/05/10 07:08:12;;;;;;;10.23;9.23;;;17.40;98.60;;;17.80;100.00;100990.13;4974077;28;20427;-77
2022/05/10 07:10:40;;;;;;;9.82;8.88;;;17.50;98.50;;;17.84;100.00;100983.72;4973584;28;20514;-77
2022/05/10 07:13:07;;;;;;;9.95;9.05;;;17.50;98.40;;;17.86;100.00;100988.03;4997173;28;20415;-77
2022/05/10 07:15:35;;;;;;;10.10;9.20;;;17.60;98.50;;;17.93;100.00;100980.63;4992639;28;20126;-77
2022/05/10 07:18:02;;;;;;;12.07;9.30;;;17.60;98.50;;;17.95;100.00;100981.47;4991296;28;20138;-77
2022/05/10 07:20:29;;;;;;;10.77;9.55;;;17.70;98.50;;;18.10;100.00;100979.03;4990142;28;20722;-77
2022/05/10 07:22:57;;;;;;;9.93;8.98;;;17.80;98.60;;;18.21;100.00;100978.56;4992430;28;20046;-77
2022/05/10 07:25:25;;;;;;;11.20;10.10;;;17.80;98.70;;;18.31;100.00;100982.50;4991140;28;20104;-78
2022/05/10 07:27:53;;;;;;;10.90;9.75;;;17.90;98.60;;;18.33;100.00;100969.97;4991911;28;20085;-78
2022/05/10 07:30:23;;;;;;;10.68;9.43;;;18.00;98.60;;;18.53;100.00;100973.50;4990188;28;20093;-77
2022/05/10 07:32:52;;;;;;;10.82;9.75;;;18.10;98.30;;;18.63;100.00;100985.44;4976217;28;20050;-78
2022/05/10 07:36:23;;;;;;;12.88;10.20;;;18.20;98.40;;;18.66;100.00;100987.09;4991710;28;20113;-78
2022/05/10 07:38:16;;;;;;;10.45;9.45;;;18.30;98.00;;;18.79;100.00;100982.91;5004091;28;20120;-78
2022/05/10 07:40:48;;;;;;;13.57;9.55;;;18.40;98.10;;;18.85;100.00;100977.25;5005286;28;20069;-77
2022/05/10 07:43:18;;;;;;;11.18;9.23;;;18.40;98.10;;;18.93;100.00;100976.03;4989427;28;20096;-77
2022/05/10 07:45:50;;;;;;;10.73;9.73;;;18.50;97.80;;;18.90;100.00;100977.03;5005749;28;20050;-77
2022/05/10 07:48:17;;;;;;;12.32;9.52;;;18.70;97.70;;;18.99;100.00;100976.63;5006507;28;20057;-77
2022/05/10 07:50:46;;;;;;;11.23;9.68;;;18.70;97.80;;;19.09;100.00;100979.69;5004140;28;20038;-77
2022/05/10 07:53:14;;;;;;;12.05;10.38;;;18.80;97.70;;;19.17;100.00;100975.75;5000770;28;20084;-77
2022/05/10 07:55:41;;;;;;;12.80;10.40;;;18.80;97.60;;;19.28;100.00;100973.41;5012737;28;20046;-78
2022/05/10 07:58:08;;;;;;;11.27;10.07;;;18.90;97.60;;;19.33;100.00;100966.03;5009003;28;20169;-77
2022/05/10 08:00:38;;;;;;;12.55;9.98;;;18.90;97.60;;;19.46;100.00;100970.75;4993281;28;20145;-77
2022/05/10 08:03:25;;;;;;;12.40;10.15;;;19.00;97.60;;;19.47;100.00;100954.66;4997907;28;20102;-78
2022/05/10 08:05:59;;;;;;;11.32;9.73;;;19.10;97.50;;;19.52;100.00;100965.94;4996031;28;20072;-78
2022/05/10 08:08:29;;;;;;;10.95;9.80;;;19.10;97.40;;;19.59;100.00;100961.16;4992643;28;20070;-76
2022/05/10 08:11:06;;;;;;;11.43;9.27;;;19.20;97.20;;;19.60;100.00;100952.22;4993686;28;20116;-77
2022/05/10 08:13:34;;;;;;;11.73;9.52;;;19.30;97.30;;;19.72;100.00;100949.84;4992865;28;20046;-77
2022/05/10 08:16:01;;;;;;;11.48;9.07;;;19.30;97.20;;;19.80;100.00;100944.94;5010261;28;20046;-78
2022/05/10 08:18:29;;;;;;;9.65;8.65;;;19.40;97.40;;;19.95;100.00;100956.66;5010244;28;20121;-78
2022/05/10 08:20:59;;;;;;;11.93;9.80;;;19.50;97.20;;;20.16;100.00;100959.06;5009835;28;20145;-78
2022/05/10 08:23:33;;;;;;;12.17;9.47;;;19.60;97.10;;;20.24;100.00;100948.84;4993410;28;20790;-78
2022/05/10 08:26:01;;;;;;;8.77;7.97;;;19.70;97.00;;;20.38;100.00;100959.63;5008895;28;20286;-78
2022/05/10 08:28:30;;;;;;;11.40;8.70;;;19.80;96.80;;;20.61;100.00;100953.94;5008324;28;20599;-78
2022/05/10 08:30:58;;;;;;;10.90;8.93;;;20.10;96.70;;;20.72;100.00;100954.16;4976936;28;20117;-78
2022/05/10 08:33:32;;;;;;;9.80;8.93;;;20.20;96.60;;;20.77;100.00;100954.78;4993515;28;20100;-78
2022/05/10 08:36:01;;;;;;;11.75;9.93;;;20.40;95.60;;;20.81;100.00;100948.31;4978272;28;20706;-78
2022/05/10 08:38:30;;;;;;;10.68;9.60;;;20.50;95.30;;;20.90;100.00;100940.69;4996707;28;20355;-79
2022/05/10 08:41:21;;;;;;;9.87;8.93;;;20.50;95.30;;;21.07;100.00;100950.41;4979411;28;20054;-78
2022/05/10 08:43:54;;;;;;;10.50;9.52;;;20.70;95.70;;;21.10;100.00;100939.53;4972829;28;20678;-78
2022/05/10 08:46:33;;;;;;;10.68;9.57;;;20.70;95.50;;;21.19;100.00;100949.69;4990669;28;20137;-77
2022/05/10 08:49:10;;;;;;;9.68;8.18;;;20.70;95.60;;;21.26;100.00;100944.84;4990484;28;20077;-81
2022/05/10 08:51:37;;;;;;;11.23;8.27;;;20.80;95.60;;;21.32;100.00;100946.28;4990827;28;20137;-81
2022/05/10 08:54:05;;;;;;;13.60;8.75;;;20.80;95.60;;;21.42;100.00;100934.03;5007615;28;20049;-79
2022/05/10 08:56:43;;;;;;;9.10;8.23;;;20.90;95.10;;;21.50;100.00;100941.59;4974991;28;20092;-79
2022/05/10 08:59:54;;;;;;;11.13;7.82;;;21.00;95.10;;;21.60;99.12;100941.91;5005381;28;20074;-80
2022/05/10 09:02:45;;;;;;;11.40;8.60;;;21.10;94.60;;;21.70;100.00;100931.50;4959926;28;20778;-81
2022/05/10 09:05:42;;;;;;;9.27;8.45;;;21.20;94.60;;;21.83;96.54;100931.63;4989856;28;20054;-80
2022/05/10 09:08:45;;;;;;;9.20;8.13;;;21.30;94.20;;;21.89;95.92;100931.22;4990807;28;20141;-80
2022/05/10 09:11:15;;;;;;;8.68;7.88;;;21.40;94.20;;;21.99;96.20;100931.50;5006629;28;20141;-81
2022/05/10 09:13:43;;;;;;;8.70;7.90;;;21.50;94.10;;;21.98;95.28;100914.59;4990751;28;20526;-81
2022/05/10 09:16:12;;;;;;;8.90;7.88;;;21.60;94.10;;;22.17;96.31;100926.78;4991272;28;20076;-80
2022/05/10 09:18:49;;;;;;;9.57;7.95;;;21.70;94.20;;;22.10;95.39;100919.16;4990733;28;20593;-82
2022/05/10 09:21:43;;;;;;;12.60;8.63;;;21.80;94.00;;;22.26;96.21;100923.53;5005373;28;20117;-82
2022/05/10 09:24:41;;;;;;;10.90;7.60;;;21.80;94.00;;;22.37;96.39;100923.69;4989610;28;20054;-80
2022/05/10 09:27:10;;;;;;;9.15;6.65;;;21.90;94.00;;;22.49;91.74;100918.50;4990707;28;20523;-82
2022/05/10 09:29:48;;;;;;;8.85;7.57;;;22.00;93.60;;;22.66;90.21;100925.47;4989439;28;20054;-81
2022/05/10 09:35:25;;;;;;;9.02;7.47;;;22.20;93.00;;;23.00;83.78;100915.13;5004494;28;20049;-79
2022/05/10 09:38:04;;;;;;;7.80;7.10;;;22.40;92.90;;;23.01;81.97;100908.78;4991689;28;20483;-82
2022/05/10 09:40:42;;;;;;;8.80;6.68;;;22.50;92.70;;;23.19;84.62;100914.75;5008175;28;20077;-82
2022/05/10 09:43:28;;;;;;;;;;;22.60;93.00;;;23.30;80.69;100910.47;4991153;28;20047;-81
2022/05/10 09:46:18;;;;;;;6.82;6.13;;;22.80;92.50;;;23.48;81.00;100905.66;5007118;28;20651;-83
2022/05/10 09:48:47;;;;;;;7.45;6.75;;;22.90;92.60;;;23.58;76.70;100895.97;4973697;28;20102;-82
2022/05/10 09:51:39;;;;;;;8.63;6.20;;;23.00;92.10;;;23.62;73.53;100904.66;4971647;28;20043;-83
2022/05/10 09:54:25;;;;;;;6.57;5.80;;;23.10;91.70;;;23.77;74.87;100900.88;4982322;28;20050;-81
2022/05/10 09:56:56;;;;;;;11.80;6.68;;;23.20;91.80;;;23.80;65.95;100905.19;4975522;28;20116;-78
2022/05/10 09:59:27;;;;;;;8.88;6.78;;;23.40;90.70;;;23.80;67.81;100891.75;4975506;28;20054;-78
2022/05/10 10:02:01;;;;;;;6.93;6.38;;;23.40;90.80;;;24.04;66.04;100889.16;5005571;28;20052;-77
2022/05/10 10:04:38;;;;;;;6.40;5.90;;;23.40;90.50;;;24.13;65.47;100892.16;5004076;28;20038;-77
2022/05/10 10:07:13;;;;;;;7.05;6.20;;;23.60;90.50;;;24.12;63.98;100877.84;5004776;28;20053;-77
2022/05/10 10:09:51;;;;;;;7.32;5.88;;;23.70;90.10;;;24.23;64.00;100886.94;5003049;28;20101;-76
2022/05/10 10:12:40;;;;;;;9.63;6.55;;;23.80;90.10;;;24.32;60.46;100879.06;4972542;28;20050;-77
2022/05/10 10:15:42;;;;;;;7.40;6.15;;;23.90;88.90;;;24.42;62.67;100876.53;4988139;28;20069;-77
2022/05/10 10:18:51;;;;;;;8.18;5.93;;;23.90;89.60;;;24.48;63.21;100878.75;5004536;28;20057;-77
2022/05/10 10:21:45;;;;;;;7.03;5.65;;;24.00;89.80;;;24.39;56.60;100881.28;5004112;28;20066;-78
2022/05/10 10:24:28;;;;;;;5.88;5.38;;;24.00;86.70;;;24.56;59.00;100870.09;4988504;28;20149;-77
2022/05/10 10:27:03;;;;;;;6.88;6.22;;;24.00;87.50;;;24.53;56.75;100864.97;4993181;28;20061;-77
2022/05/10 10:29:55;;;;;;;10.43;5.78;;;24.20;86.60;;;24.78;58.83;100873.91;5002236;28;20064;-77
2022/05/10 10:32:29;;;;;;;6.38;5.78;;;24.20;87.50;;;24.98;56.79;100868.81;4988617;28;20048;-80
2022/05/10 10:35:29;;;;;;;6.88;6.28;;;24.40;86.90;;;24.96;55.29;100868.06;4985605;28;20385;-81
2022/05/10 10:38:13;;;;;;;6.05;5.45;;;24.50;86.10;;;25.09;57.15;100863.47;4986254;28;20066;-79
2022/05/10 10:40:46;;;;;;;7.90;6.13;;;24.50;86.30;;;25.20;56.25;100859.91;4969528;28;20515;-81
2022/05/10 10:43:22;;;;;;;6.88;6.18;;;24.70;86.10;;;25.20;52.58;100859.91;4986325;28;20567;-79